aviador You're here:

PAYA Decoded Metar

YAKUTAT in AK, USA
Report Time2017-06-24 16:53:00
UTC Time2017-06-24 17:23:58
Flight Rules vfr VFR
WindCalm
Visibility9999 m
Phenomena:N/A
Clouds:Few 055 Hf
Scattered 070 Hf
Overcast 100 Hf
Expected CloudBase > 1,600 ft AGL from Temp-Dew spread
Ceiling10,000 ft
Temp13°C (ISA -2)
Dew Point09°C (77% RH)
AAT12.8°C
QNH1019 hPa
Density Alt-243 ft
Elevation36 ft
Report Wrong Elevation
Raw Report
PAYA 241653Z AUTO 00000KT 10SM FEW055 SCT070 OVC100 13/09 A3010
RMK AO2 SLP191 T01280089 TSNO=

Extra information for PAYA:More info

Metar Taf Metar & Taf Last 4 Metars F.Rules Stats Wind Profile Meteogram Temp Stats Airport Information Weather charts Add Link Nearby VenuesMetar ALERT Operation Metar Decoded Social comments

AIRNAV info for PAYA